sensor_id;sensor_type;location;lat;lon;timestamp;pressure;altitude;pressure_sealevel;temperature;humidity
71239;BME280;61342;51.442;7.370;2023-04-01T00:00:22;97857.78;;;11.19;100.00
71239;BME280;61342;51.442;7.370;2023-04-01T00:01:22;97855.50;;;11.18;100.00
71239;BME280;61342;51.442;7.370;2023-04-01T00:02:22;97854.91;;;11.19;100.00
71239;BME280;61342;51.442;7.370;2023-04-01T00:03:23;97845.16;;;11.15;100.00
71239;BME280;61342;51.442;7.370;2023-04-01T00:04:24;97850.03;;;11.12;100.00
71239;BME280;61342;51.442;7.370;2023-04-01T00:05:24;97851.09;;;11.17;100.00
71239;BME280;61342;51.442;7.370;2023-04-01T00:06:25;97838.75;;;11.07;100.00
71239;BME280;61342;51.442;7.370;2023-04-01T00:07:25;97848.63;;;11.13;100.00
71239;BME280;61342;51.442;7.370;2023-04-01T00:08:26;97843.59;;;11.04;100.00
71239;BME280;61342;51.442;7.370;2023-04-01T00:09:27;97839.09;;;11.11;100.00
71239;BME280;61342;51.442;7.370;2023-04-01T00:10:27;97843.50;;;11.12;100.00
71239;BME280;61342;51.442;7.370;2023-04-01T00:11:28;97846.22;;;11.10;100.00
71239;BME280;61342;51.442;7.370;2023-04-01T00:12:28;97849.25;;;11.12;100.00
71239;BME280;61342;51.442;7.370;2023-04-01T00:13:28;97840.88;;;11.06;100.00
71239;BME280;61342;51.442;7.370;2023-04-01T00:14:29;97855.75;;;11.12;100.00
71239;BME280;61342;51.442;7.370;2023-04-01T00:15:29;97843.94;;;11.08;100.00
71239;BME280;61342;51.442;7.370;2023-04-01T00:16:30;97846.22;;;11.10;100.00
71239;BME280;61342;51.442;7.370;2023-04-01T00:17:31;97848.91;;;11.08;100.00
71239;BME280;61342;51.442;7.370;2023-04-01T00:18:31;97847.56;;;11.09;100.00
71239;BME280;61342;51.442;7.370;2023-04-01T00:19:31;97847.56;;;11.09;100.00
71239;BME280;61342;51.442;7.370;2023-04-01T00:20:33;97846.22;;;11.10;100.00
71239;BME280;61342;51.442;7.370;2023-04-01T00:21:33;97847.97;;;11.05;100.00
71239;BME280;61342;51.442;7.370;2023-04-01T00:22:33;97842.22;;;11.05;100.00
71239;BME280;61342;51.442;7.370;2023-04-01T00:23:34;97843.94;;;11.08;100.00
71239;BME280;61342;51.442;7.370;2023-04-01T00:24:35;97833.25;;;11.01;100.00
71239;BME280;61342;51.442;7.370;2023-04-01T00:25:35;97843.41;;;11.02;100.00
71239;BME280;61342;51.442;7.370;2023-04-01T00:26:36;97846.81;;;11.08;100.00
71239;BME280;61342;51.442;7.370;2023-04-01T00:27:36;97852.56;;;11.08;100.00
71239;BME280;61342;51.442;7.370;2023-04-01T00:28:37;97838.19;;;11.08;100.00
71239;BME280;61342;51.442;7.370;2023-04-01T00:29:37;97841.63;;;11.07;100.00
71239;BME280;61342;51.442;7.370;2023-04-01T00:30:38;97838.75;;;11.07;100.00
71239;BME280;61342;51.442;7.370;2023-04-01T00:31:38;97835.53;;;11.03;100.00
71239;BME280;61342;51.442;7.370;2023-04-01T00:32:38;97840.88;;;11.06;100.00
71239;BME280;61342;51.442;7.370;2023-04-01T00:33:39;97850.25;;;11.07;100.00
71239;BME280;61342;51.442;7.370;2023-04-01T00:34:41;97845.09;;;11.05;100.00
71239;BME280;61342;51.442;7.370;2023-04-01T00:35:41;97844.34;;;11.05;100.00
71239;BME280;61342;51.442;7.370;2023-04-01T00:36:42;97838.59;;;11.05;100.00
71239;BME280;61342;51.442;7.370;2023-04-01T00:37:42;97851.44;;;11.04;100.00
71239;BME280;61342;51.442;7.370;2023-04-01T00:38:43;97841.47;;;11.05;100.00
71239;BME280;61342;51.442;7.370;2023-04-01T00:39:43;97848.56;;;11.04;100.00
71239;BME280;61342;51.442;7.370;2023-04-01T00:40:45;97835.53;;;11.03;100.00
71239;BME280;61342;51.442;7.370;2023-04-01T00:41:46;97845.09;;;11.05;100.00
71239;BME280;61342;51.442;7.370;2023-04-01T00:42:47;97828.94;;;10.93;100.00
71239;BME280;61342;51.442;7.370;2023-04-01T00:43:49;97844.00;;;11.01;100.00
71239;BME280;61342;51.442;7.370;2023-04-01T00:44:51;97836.91;;;11.02;100.00
71239;BME280;61342;51.442;7.370;2023-04-01T00:45:52;97848.56;;;11.04;100.00
71239;BME280;61342;51.442;7.370;2023-04-01T00:46:53;97835.19;;;10.99;100.00
71239;BME280;61342;51.442;7.370;2023-04-01T00:47:54;97847.03;;;11.03;100.00
71239;BME280;61342;51.442;7.370;2023-04-01T00:48:55;97842.06;;;11.03;100.00
71239;BME280;61342;51.442;7.370;2023-04-01T00:49:56;97835.19;;;10.99;100.00
71239;BME280;61342;51.442;7.370;2023-04-01T00:51:01;97839.00;;;11.01;100.00
71239;BME280;61342;51.442;7.370;2023-04-01T00:52:04;97841.28;;;11.03;100.00
71239;BME280;61342;51.442;7.370;2023-04-01T00:53:07;97835.38;;;11.01;100.00
71239;BME280;61342;51.442;7.370;2023-04-01T00:54:08;97840.53;;;11.02;100.00
71239;BME280;61342;51.442;7.370;2023-04-01T00:55:10;97831.75;;;11.00;100.00
71239;BME280;61342;51.442;7.370;2023-04-01T00:56:18;97835.97;;;10.99;100.00
71239;BME280;61342;51.442;7.370;2023-04-01T00:57:34;97827.94;;;10.98;100.00
71239;BME280;61342;51.442;7.370;2023-04-01T00:58:40;97835.03;;;10.97;100.00
71239;BME280;61342;51.442;7.370;2023-04-01T00:59:46;97827.94;;;10.98;100.00
71239;BME280;61342;51.442;7.370;2023-04-01T01:00:48;97830.81;;;10.98;100.00
71239;BME280;61342;51.442;7.370;2023-04-01T01:01:49;97833.69;;;10.98;100.00
71239;BME280;61342;51.442;7.370;2023-04-01T01:02:50;97824.13;;;10.95;100.00
71239;BME280;61342;51.442;7.370;2023-04-01T01:03:51;97833.50;;;10.96;100.00
71239;BME280;61342;51.442;7.370;2023-04-01T01:04:51;97836.22;;;10.94;100.00
71239;BME280;61342;51.442;7.370;2023-04-01T01:06:05;97834.84;;;10.95;100.00
71239;BME280;61342;51.442;7.370;2023-04-01T01:09:39;97838.75;;;10.90;100.00
71239;BME280;61342;51.442;7.370;2023-04-01T01:10:43;97833.75;;;10.91;100.00
71239;BME280;61342;51.442;7.370;2023-04-01T01:11:56;97834.50;;;10.91;100.00
71239;BME280;61342;51.442;7.370;2023-04-01T01:15:58;97841.47;;;10.88;100.00
71239;BME280;61342;51.442;7.370;2023-04-01T01:17:14;97820.06;;;10.82;100.00
71239;BME280;61342;51.442;7.370;2023-04-01T01:21:01;97835.38;;;10.84;100.00
71239;BME280;61342;51.442;7.370;2023-04-01T01:27:26;97829.63;;;10.84;100.00
71239;BME280;61342;51.442;7.370;2023-04-01T01:31:02;97826.59;;;10.82;100.00
71239;BME280;61342;51.442;7.370;2023-04-01T01:35:27;97826.41;;;10.80;100.00
71239;BME280;61342;51.442;7.370;2023-04-01T01:36:32;97823.53;;;10.80;100.00
71239;BME280;61342;51.442;7.370;2023-04-01T01:37:38;97823.53;;;10.80;100.00
71239;BME280;61342;51.442;7.370;2023-04-01T01:38:39;97826.59;;;10.82;100.00
71239;BME280;61342;51.442;7.370;2023-04-01T01:39:42;97825.06;;;10.81;100.00
71239;BME280;61342;51.442;7.370;2023-04-01T01:40:46;97816.59;;;10.83;100.00
71239;BME280;61342;51.442;7.370;2023-04-01T01:41:48;97814.31;;;10.82;100.00
71239;BME280;61342;51.442;7.370;2023-04-01T01:42:52;97825.41;;;10.85;100.00
71239;BME280;61342;51.442;7.370;2023-04-01T01:43:56;97813.72;;;10.83;100.00
71239;BME280;61342;51.442;7.370;2023-04-01T01:44:58;97812.38;;;10.84;100.00
71239;BME280;61342;51.442;7.370;2023-04-01T01:46:05;97819.47;;;10.83;100.00
71239;BME280;61342;51.442;7.370;2023-04-01T01:47:07;97818.88;;;10.85;100.00
71239;BME280;61342;51.442;7.370;2023-04-01T01:48:09;97807.81;;;10.81;100.00
71239;BME280;61342;51.442;7.370;2023-04-01T01:49:12;97819.66;;;10.85;100.00
71239;BME280;61342;51.442;7.370;2023-04-01T01:50:15;97806.22;;;10.88;100.00
71239;BME280;61342;51.442;7.370;2023-04-01T01:51:15;97822.69;;;10.87;100.00
71239;BME280;61342;51.442;7.370;2023-04-01T01:52:17;97811.97;;;10.88;100.00
71239;BME280;61342;51.442;7.370;2023-04-01T01:53:18;97814.84;;;10.88;100.00
71239;BME280;61342;51.442;7.370;2023-04-01T01:54:18;97821.19;;;10.86;100.00
71239;BME280;61342;51.442;7.370;2023-04-01T01:55:40;97815.25;;;10.84;100.00
71239;BME280;61342;51.442;7.370;2023-04-01T01:56:44;97811.63;;;10.84;100.00
71239;BME280;61342;51.442;7.370;2023-04-01T01:57:45;97826.94;;;10.86;100.00
71239;BME280;61342;51.442;7.370;2023-04-01T01:58:49;97820.41;;;10.86;100.00
71239;BME280;61342;51.442;7.370;2023-04-01T01:59:55;97821.19;;;10.86;100.00
71239;BME280;61342;51.442;7.370;2023-04-01T02:01:03;97816.44;;;10.81;100.00
71239;BME280;61342;51.442;7.370;2023-04-01T02:02:06;97813.13;;;10.85;100.00
71239;BME280;61342;51.442;7.370;2023-04-01T02:03:12;97817.38;;;10.84;100.00
71239;BME280;61342;51.442;7.370;2023-04-01T02:04:13;97818.13;;;10.84;100.00
71239;BME280;61342;51.442;7.370;2023-04-01T02:05:19;97826.16;;;10.86;100.00
71239;BME280;61342;51.442;7.370;2023-04-01T02:06:22;97824.06;;;10.86;100.00
71239;BME280;61342;51.442;7.370;2023-04-01T02:07:27;97839.19;;;10.87;100.00
71239;BME280;61342;51.442;7.370;2023-04-01T02:08:32;97823.72;;;10.82;100.00
71239;BME280;61342;51.442;7.370;2023-04-01T02:09:34;97825.41;;;10.85;100.00
71239;BME280;61342;51.442;7.370;2023-04-01T02:10:37;97824.63;;;10.85;100.00
71239;BME280;61342;51.442;7.370;2023-04-01T02:11:48;97818.13;;;10.84;100.00
71239;BME280;61342;51.442;7.370;2023-04-01T02:12:51;97829.63;;;10.84;100.00
71239;BME280;61342;51.442;7.370;2023-04-01T02:13:56;97824.63;;;10.85;100.00
71239;BME280;61342;51.442;7.370;2023-04-01T02:16:06;97826.75;;;10.84;100.00
71239;BME280;61342;51.442;7.370;2023-04-01T02:17:15;97814.31;;;10.82;100.00
71239;BME280;61342;51.442;7.370;2023-04-01T02:18:18;97819.66;;;10.85;100.00
71239;BME280;61342;51.442;7.370;2023-04-01T02:19:22;97816.59;;;10.83;100.00
71239;BME280;61342;51.442;7.370;2023-04-01T02:20:27;97817.97;;;10.82;100.00
71239;BME280;61342;51.442;7.370;2023-04-01T02:21:31;97820.84;;;10.82;100.00
71239;BME280;61342;51.442;7.370;2023-04-01T02:22:35;97820.84;;;10.82;100.00
71239;BME280;61342;51.442;7.370;2023-04-01T02:23:38;97826.00;;;10.84;100.00
71239;BME280;61342;51.442;7.370;2023-04-01T02:24:40;97829.47;;;10.82;100.00
71239;BME280;61342;51.442;7.370;2023-04-01T02:25:42;97827.34;;;10.83;100.00
71239;BME280;61342;51.442;7.370;2023-04-01T02:26:44;97828.88;;;10.84;100.00
71239;BME280;61342;51.442;7.370;2023-04-01T02:27:46;97814.56;;;10.76;100.00
71239;BME280;61342;51.442;7.370;2023-04-01T02:28:48;97826.59;;;10.82;100.00
71239;BME280;61342;51.442;7.370;2023-04-01T02:29:50;97827.34;;;10.83;100.00
71239;BME280;61342;51.442;7.370;2023-04-01T02:30:52;97813.38;;;10.79;100.00
71239;BME280;61342;51.442;7.370;2023-04-01T02:31:53;97827.34;;;10.83;100.00
71239;BME280;61342;51.442;7.370;2023-04-01T02:32:56;97817.19;;;10.82;100.00
71239;BME280;61342;51.442;7.370;2023-04-01T02:33:57;97819.47;;;10.83;100.00
71239;BME280;61342;51.442;7.370;2023-04-01T02:34:57;97811.28;;;10.80;100.00
71239;BME280;61342;51.442;7.370;2023-04-01T02:36:00;97794.88;;;10.73;100.00
71239;BME280;61342;51.442;7.370;2023-04-01T02:37:00;97806.28;;;10.80;100.00
71239;BME280;61342;51.442;7.370;2023-04-01T02:38:02;97807.63;;;10.79;100.00
71239;BME280;61342;51.442;7.370;2023-04-01T02:39:03;97811.44;;;10.82;100.00
71239;BME280;61342;51.442;7.370;2023-04-01T02:40:06;97805.53;;;10.80;100.00
71239;BME280;61342;51.442;7.370;2023-04-01T02:41:07;97807.47;;;10.77;100.00
71239;BME280;61342;51.442;7.370;2023-04-01T02:42:07;97804.59;;;10.77;100.00
71239;BME280;61342;51.442;7.370;2023-04-01T02:43:08;97807.28;;;10.75;100.00
71239;BME280;61342;51.442;7.370;2023-04-01T02:44:10;97823.53;;;10.80;100.00
71239;BME280;61342;51.442;7.370;2023-04-01T02:45:11;97804.75;;;10.79;100.00
71239;BME280;61342;51.442;7.370;2023-04-01T02:46:12;97806.09;;;10.78;100.00
71239;BME280;61342;51.442;7.370;2023-04-01T02:47:12;97804.88;;;10.72;100.00
71239;BME280;61342;51.442;7.370;2023-04-01T02:48:12;97805.94;;;10.76;100.00
71239;BME280;61342;51.442;7.370;2023-04-01T02:49:14;97814.72;;;10.78;100.00
71239;BME280;61342;51.442;7.370;2023-04-01T02:50:14;97814.72;;;10.78;100.00
71239;BME280;61342;51.442;7.370;2023-04-01T02:51:15;97808.06;;;10.76;100.00
71239;BME280;61342;51.442;7.370;2023-04-01T02:52:15;97804.00;;;10.79;100.00
71239;BME280;61342;51.442;7.370;2023-04-01T02:53:16;97813.97;;;10.78;100.00
71239;BME280;61342;51.442;7.370;2023-04-01T02:54:17;97799.13;;;10.72;100.00
71239;BME280;61342;51.442;7.370;2023-04-01T02:55:18;97807.28;;;10.75;100.00
71239;BME280;61342;51.442;7.370;2023-04-01T02:56:18;97804.41;;;10.75;100.00
71239;BME280;61342;51.442;7.370;2023-04-01T02:57:19;97802.16;;;10.74;100.00
71239;BME280;61342;51.442;7.370;2023-04-01T02:58:20;97810.94;;;10.76;100.00
71239;BME280;61342;51.442;7.370;2023-04-01T02:59:20;97807.28;;;10.75;100.00
71239;BME280;61342;51.442;7.370;2023-04-01T03:00:20;97807.72;;;10.72;100.00
71239;BME280;61342;51.442;7.370;2023-04-01T03:01:21;97801.47;;;10.66;100.00
71239;BME280;61342;51.442;7.370;2023-04-01T03:02:22;97818.78;;;10.75;100.00
71239;BME280;61342;51.442;7.370;2023-04-01T03:03:22;97814.38;;;10.74;100.00
71239;BME280;61342;51.442;7.370;2023-04-01T03:04:23;97813.63;;;10.74;100.00
71239;BME280;61342;51.442;7.370;2023-04-01T03:05:23;97810.94;;;10.76;100.00
71239;BME280;61342;51.442;7.370;2023-04-01T03:06:24;97810.94;;;10.76;100.00
71239;BME280;61342;51.442;7.370;2023-04-01T03:07:24;97824.38;;;10.73;100.00
71239;BME280;61342;51.442;7.370;2023-04-01T03:08:24;97823.78;;;10.75;100.00
71239;BME280;61342;51.442;7.370;2023-04-01T03:09:25;97823.59;;;10.73;100.00
71239;BME280;61342;51.442;7.370;2023-04-01T03:10:25;97817.50;;;10.69;100.00
71239;BME280;61342;51.442;7.370;2023-04-01T03:11:25;97821.50;;;10.73;100.00
71239;BME280;61342;51.442;7.370;2023-04-01T03:12:26;97819.22;;;10.72;100.00
71239;BME280;61342;51.442;7.370;2023-04-01T03:13:27;97822.25;;;10.74;100.00
71239;BME280;61342;51.442;7.370;2023-04-01T03:14:27;97816.34;;;10.72;100.00
71239;BME280;61342;51.442;7.370;2023-04-01T03:15:27;97829.94;;;10.71;100.00
71239;BME280;61342;51.442;7.370;2023-04-01T03:16:28;97826.13;;;10.69;100.00
71239;BME280;61342;51.442;7.370;2023-04-01T03:17:28;97822.50;;;10.68;100.00
71239;BME280;61342;51.442;7.370;2023-04-01T03:18:28;97825.72;;;10.72;100.00
71239;BME280;61342;51.442;7.370;2023-04-01T03:19:29;97821.31;;;10.71;100.00
71239;BME280;61342;51.442;7.370;2023-04-01T03:20:30;97816.91;;;10.70;100.00
71239;BME280;61342;51.442;7.370;2023-04-01T03:21:30;97827.84;;;10.72;100.00
71239;BME280;61342;51.442;7.370;2023-04-01T03:22:31;97821.31;;;10.71;100.00
71239;BME280;61342;51.442;7.370;2023-04-01T03:23:31;97822.50;;;10.68;100.00
71239;BME280;61342;51.442;7.370;2023-04-01T03:24:31;97818.28;;;10.69;100.00
71239;BME280;61342;51.442;7.370;2023-04-01T03:25:32;97824.03;;;10.69;100.00
71239;BME280;61342;51.442;7.370;2023-04-01T03:26:32;97814.63;;;10.69;100.00
71239;BME280;61342;51.442;7.370;2023-04-01T03:27:33;97813.88;;;10.68;100.00
71239;BME280;61342;51.442;7.370;2023-04-01T03:28:35;97820.38;;;10.69;100.00
71239;BME280;61342;51.442;7.370;2023-04-01T03:29:35;97826.13;;;10.69;100.00
71239;BME280;61342;51.442;7.370;2023-04-01T03:30:36;97824.44;;;10.66;100.00
71239;BME280;61342;51.442;7.370;2023-04-01T03:31:36;97821.16;;;10.69;100.00
71239;BME280;61342;51.442;7.370;2023-04-01T03:32:36;97818.09;;;10.67;100.00
71239;BME280;61342;51.442;7.370;2023-04-01T03:33:37;97819.44;;;10.66;100.00
71239;BME280;61342;51.442;7.370;2023-04-01T03:34:37;97820.38;;;10.69;100.00
71239;BME280;61342;51.442;7.370;2023-04-01T03:35:37;97825.38;;;10.68;100.00
71239;BME280;61342;51.442;7.370;2023-04-01T03:36:38;97819.09;;;10.62;100.00
71239;BME280;61342;51.442;7.370;2023-04-01T03:37:38;97822.50;;;10.68;100.00
71239;BME280;61342;51.442;7.370;2023-04-01T03:38:43;97824.44;;;10.66;100.00
71239;BME280;61342;51.442;7.370;2023-04-01T03:39:43;97825.97;;;10.67;100.00
71239;BME280;61342;51.442;7.370;2023-04-01T03:40:44;97826.72;;;10.67;100.00
71239;BME280;61342;51.442;7.370;2023-04-01T03:41:45;97829.25;;;10.63;100.00
71239;BME280;61342;51.442;7.370;2023-04-01T03:42:46;97826.97;;;10.62;100.00
71239;BME280;61342;51.442;7.370;2023-04-01T03:43:46;97822.75;;;10.63;100.00
71239;BME280;61342;51.442;7.370;2023-04-01T03:44:47;97823.34;;;10.61;100.00
71239;BME280;61342;51.442;7.370;2023-04-01T03:45:49;97830.94;;;10.66;100.00
71239;BME280;61342;51.442;7.370;2023-04-01T03:46:50;97833.06;;;10.66;100.00
71239;BME280;61342;51.442;7.370;2023-04-01T03:47:50;97836.53;;;10.64;100.00
71239;BME280;61342;51.442;7.370;2023-04-01T03:48:51;97835.00;;;10.63;100.00
71239;BME280;61342;51.442;7.370;2023-04-01T03:49:51;97834.41;;;10.65;100.00
71239;BME280;61342;51.442;7.370;2023-04-01T03:50:52;97833.47;;;10.62;100.00
71239;BME280;61342;51.442;7.370;2023-04-01T03:51:52;97837.13;;;10.63;100.00
71239;BME280;61342;51.442;7.370;2023-04-01T03:52:52;97844.56;;;10.66;100.00
71239;BME280;61342;51.442;7.370;2023-04-01T03:53:53;97833.66;;;10.64;100.00
71239;BME280;61342;51.442;7.370;2023-04-01T03:54:53;97836.53;;;10.64;100.00
71239;BME280;61342;51.442;7.370;2023-04-01T03:55:53;97844.41;;;10.64;100.00
71239;BME280;61342;51.442;7.370;2023-04-01T03:56:54;97846.34;;;10.61;100.00
71239;BME280;61342;51.442;7.370;2023-04-01T03:57:55;97832.19;;;10.56;100.00
71239;BME280;61342;51.442;7.370;2023-04-01T03:58:55;97837.72;;;10.61;100.00
71239;BME280;61342;51.442;7.370;2023-04-01T03:59:56;97847.69;;;10.60;100.00
71239;BME280;61342;51.442;7.370;2023-04-01T04:00:56;97841.19;;;10.60;100.00
71239;BME280;61342;51.442;7.370;2023-04-01T04:01:56;97846.75;;;10.58;100.00
71239;BME280;61342;51.442;7.370;2023-04-01T04:02:57;97851.91;;;10.59;100.00
71239;BME280;61342;51.442;7.370;2023-04-01T04:03:58;97855.53;;;10.60;100.00
71239;BME280;61342;51.442;7.370;2023-04-01T04:04:59;97839.91;;;10.53;100.00
71239;BME280;61342;51.442;7.370;2023-04-01T04:05:59;97842.19;;;10.55;100.00
71239;BME280;61342;51.442;7.370;2023-04-01T04:07:00;97842.19;;;10.55;100.00
71239;BME280;61342;51.442;7.370;2023-04-01T04:08:00;97851.72;;;10.57;100.00
71239;BME280;61342;51.442;7.370;2023-04-01T04:09:00;97853.22;;;10.58;100.00
71239;BME280;61342;51.442;7.370;2023-04-01T04:10:01;97859.75;;;10.59;100.00
71239;BME280;61342;51.442;7.370;2023-04-01T04:11:01;97847.94;;;10.55;100.00
71239;BME280;61342;51.442;7.370;2023-04-01T04:12:01;97854.41;;;10.55;100.00
71239;BME280;61342;51.442;7.370;2023-04-01T04:13:02;97853.22;;;10.58;100.00
71239;BME280;61342;51.442;7.370;2023-04-01T04:14:02;97843.53;;;10.54;100.00
71239;BME280;61342;51.442;7.370;2023-04-01T04:15:03;97851.72;;;10.57;100.00
71239;BME280;61342;51.442;7.370;2023-04-01T04:16:04;97855.34;;;10.58;100.00
71239;BME280;61342;51.442;7.370;2023-04-01T04:17:04;97845.22;;;10.57;100.00
71239;BME280;61342;51.442;7.370;2023-04-01T04:18:05;97857.47;;;10.57;100.00
71239;BME280;61342;51.442;7.370;2023-04-01T04:19:05;97858.22;;;10.58;100.00
71239;BME280;61342;51.442;7.370;2023-04-01T04:20:06;97855.94;;;10.56;100.00
71239;BME280;61342;51.442;7.370;2023-04-01T04:21:15;97864.56;;;10.56;100.00
71239;BME280;61342;51.442;7.370;2023-04-01T04:22:15;97861.84;;;10.58;100.00
71239;BME280;61342;51.442;7.370;2023-04-01T04:23:16;97871.66;;;10.55;100.00
71239;BME280;61342;51.442;7.370;2023-04-01T04:24:17;97859.22;;;10.53;100.00
71239;BME280;61342;51.442;7.370;2023-04-01T04:25:17;97851.19;;;10.51;100.00
71239;BME280;61342;51.442;7.370;2023-04-01T04:26:18;97862.44;;;10.57;100.00
71239;BME280;61342;51.442;7.370;2023-04-01T04:27:19;97874.72;;;10.57;100.00
71239;BME280;61342;51.442;7.370;2023-04-01T04:28:19;97853.66;;;10.55;100.00
71239;BME280;61342;51.442;7.370;2023-04-01T04:29:20;97864.38;;;10.54;100.00
71239;BME280;61342;51.442;7.370;2023-04-01T04:30:20;97866.66;;;10.56;100.00
71239;BME280;61342;51.442;7.370;2023-04-01T04:31:24;97860.16;;;10.55;100.00
71239;BME280;61342;51.442;7.370;2023-04-01T04:32:25;97861.34;;;10.52;100.00
71239;BME280;61342;51.442;7.370;2023-04-01T04:33:26;97865.91;;;10.55;100.00
71239;BME280;61342;51.442;7.370;2023-04-01T04:34:26;97867.44;;;10.56;100.00
71239;BME280;61342;51.442;7.370;2023-04-01T04:35:27;97873.94;;;10.57;100.00
71239;BME280;61342;51.442;7.370;2023-04-01T04:36:27;97869.38;;;10.54;100.00
71239;BME280;61342;51.442;7.370;2023-04-01T04:37:28;97878.16;;;10.56;100.00
71239;BME280;61342;51.442;7.370;2023-04-01T04:38:28;97871.66;;;10.55;100.00
71239;BME280;61342;51.442;7.370;2023-04-01T04:39:29;97867.09;;;10.52;100.00
71239;BME280;61342;51.442;7.370;2023-04-01T04:40:29;97867.25;;;10.54;100.00
71239;BME280;61342;51.442;7.370;2023-04-01T04:41:30;97866.66;;;10.56;100.00
71239;BME280;61342;51.442;7.370;2023-04-01T04:42:30;97870.91;;;10.55;100.00
71239;BME280;61342;51.442;7.370;2023-04-01T04:43:30;97878.94;;;10.56;100.00
71239;BME280;61342;51.442;7.370;2023-04-01T04:44:31;97868.03;;;10.55;100.00
71239;BME280;61342;51.442;7.370;2023-04-01T04:45:31;97871.50;;;10.53;100.00
71239;BME280;61342;51.442;7.370;2023-04-01T04:46:32;97870.72;;;10.53;100.00
71239;BME280;61342;51.442;7.370;2023-04-01T04:47:32;97877.59;;;10.57;100.00
71239;BME280;61342;51.442;7.370;2023-04-01T04:48:32;97880.47;;;10.57;100.00
71239;BME280;61342;51.442;7.370;2023-04-01T04:49:33;97869.38;;;10.54;100.00
71239;BME280;61342;51.442;7.370;2023-04-01T04:50:33;97870.13;;;10.54;100.00
71239;BME280;61342;51.442;7.370;2023-04-01T04:51:34;97876.22;;;10.58;100.00
71239;BME280;61342;51.442;7.370;2023-04-01T04:52:35;97877.75;;;10.59;100.00
71239;BME280;61342;51.442;7.370;2023-04-01T04:53:36;97873.94;;;10.57;100.00
71239;BME280;61342;51.442;7.370;2023-04-01T04:54:36;97881.22;;;10.58;100.00
71239;BME280;61342;51.442;7.370;2023-04-01T04:55:36;97877.75;;;10.59;100.00
71239;BME280;61342;51.442;7.370;2023-04-01T04:56:37;97878.53;;;10.60;100.00
71239;BME280;61342;51.442;7.370;2023-04-01T04:57:37;97875.06;;;10.61;100.00
71239;BME280;61342;51.442;7.370;2023-04-01T04:58:38;97880.81;;;10.61;100.00
71239;BME280;61342;51.442;7.370;2023-04-01T04:59:39;97876.41;;;10.60;100.00
71239;BME280;61342;51.442;7.370;2023-04-01T05:00:39;97883.69;;;10.61;100.00
71239;BME280;61342;51.442;7.370;2023-04-01T05:01:40;97882.31;;;10.62;100.00
71239;BME280;61342;51.442;7.370;2023-04-01T05:02:40;97869.31;;;10.61;100.00
71239;BME280;61342;51.442;7.370;2023-04-01T05:03:41;97874.28;;;10.61;100.00
71239;BME280;61342;51.442;7.370;2023-04-01T05:04:41;97886.13;;;10.65;100.00
71239;BME280;61342;51.442;7.370;2023-04-01T05:05:51;97872.78;;;10.60;100.00
71239;BME280;61342;51.442;7.370;2023-04-01T05:06:52;97882.16;;;10.60;100.00
71239;BME280;61342;51.442;7.370;2023-04-01T05:07:52;97872.19;;;10.61;100.00
71239;BME280;61342;51.442;7.370;2023-04-01T05:08:53;97888.84;;;10.63;100.00
71239;BME280;61342;51.442;7.370;2023-04-01T05:09:53;97881.16;;;10.65;100.00
71239;BME280;61342;51.442;7.370;2023-04-01T05:10:53;97883.25;;;10.65;100.00
71239;BME280;61342;51.442;7.370;2023-04-01T05:11:54;97879.44;;;10.62;100.00
71239;BME280;61342;51.442;7.370;2023-04-01T05:12:54;97881.16;;;10.65;100.00
71239;BME280;61342;51.442;7.370;2023-04-01T05:13:55;97872.94;;;10.62;100.00
71239;BME280;61342;51.442;7.370;2023-04-01T05:14:55;97881.16;;;10.65;100.00
71239;BME280;61342;51.442;7.370;2023-04-01T05:15:56;97882.66;;;10.66;100.00
71239;BME280;61342;51.442;7.370;2023-04-01T05:16:56;97890.53;;;10.66;100.00
71239;BME280;61342;51.442;7.370;2023-04-01T05:17:56;97871.66;;;10.55;100.00
71239;BME280;61342;51.442;7.370;2023-04-01T05:18:56;97891.28;;;10.66;100.00
71239;BME280;61342;51.442;7.370;2023-04-01T05:19:57;97889.19;;;10.67;100.00
71239;BME280;61342;51.442;7.370;2023-04-01T05:20:58;97889.94;;;10.67;100.00
71239;BME280;61342;51.442;7.370;2023-04-01T05:21:58;97885.72;;;10.68;100.00
71239;BME280;61342;51.442;7.370;2023-04-01T05:22:59;97881.16;;;10.65;100.00
71239;BME280;61342;51.442;7.370;2023-04-01T05:23:59;97892.22;;;10.69;100.00
71239;BME280;61342;51.442;7.370;2023-04-01T05:25:00;97869.72;;;10.58;100.00
71239;BME280;61342;51.442;7.370;2023-04-01T05:26:08;97896.47;;;10.68;100.00
71239;BME280;61342;51.442;7.370;2023-04-01T05:27:08;97897.97;;;10.69;100.00
71239;BME280;61342;51.442;7.370;2023-04-01T05:28:09;97888.00;;;10.70;100.00
71239;BME280;61342;51.442;7.370;2023-04-01T05:29:09;97892.06;;;10.67;100.00
71239;BME280;61342;51.442;7.370;2023-04-01T05:30:10;97891.63;;;10.70;100.00
71239;BME280;61342;51.442;7.370;2023-04-01T05:31:11;97887.25;;;10.69;100.00
71239;BME280;61342;51.442;7.370;2023-04-01T05:32:11;97895.69;;;10.67;100.00
71239;BME280;61342;51.442;7.370;2023-04-01T05:33:12;97904.06;;;10.73;100.00
71239;BME280;61342;51.442;7.370;2023-04-01T05:34:13;97888.75;;;10.70;100.00
71239;BME280;61342;51.442;7.370;2023-04-01T05:35:13;97896.03;;;10.71;100.00
71239;BME280;61342;51.442;7.370;2023-04-01T05:36:15;97898.91;;;10.71;100.00
71239;BME280;61342;51.442;7.370;2023-04-01T05:37:17;97893.94;;;10.72;100.00
71239;BME280;61342;51.442;7.370;2023-04-01T05:38:17;97903.31;;;10.72;100.00
71239;BME280;61342;51.442;7.370;2023-04-01T05:39:17;97896.03;;;10.71;100.00
71239;BME280;61342;51.442;7.370;2023-04-01T05:40:18;97896.38;;;10.75;100.00
71239;BME280;61342;51.442;7.370;2023-04-01T05:41:18;97889.69;;;10.73;100.00
71239;BME280;61342;51.442;7.370;2023-04-01T05:42:18;97902.13;;;10.75;100.00